createdAt,value
2023-05-10T00:01:12.192Z,45.72
2023-05-10T00:03:38.848Z,45.84
2023-05-10T00:06:05.566Z,46.01
2023-05-10T00:08:32.193Z,45.47
2023-05-10T00:10:58.654Z,46.06
2023-05-10T00:13:25.625Z,46.40
2023-05-10T00:15:52.196Z,46.28
2023-05-10T00:18:18.721Z,46.63
2023-05-10T00:20:46.973Z,46.59
2023-05-10T00:23:13.566Z,46.45
2023-05-10T00:25:40.031Z,46.91
2023-05-10T00:28:06.510Z,46.79
2023-05-10T00:30:32.975Z,46.73
2023-05-10T00:32:59.499Z,46.78
2023-05-10T00:35:25.996Z,46.20
2023-05-10T00:37:52.633Z,46.72
2023-05-10T00:40:19.219Z,46.74
2023-05-10T00:42:45.824Z,46.99
2023-05-10T00:45:13.150Z,46.66
2023-05-10T00:47:40.479Z,46.76
2023-05-10T00:50:07.573Z,47.14
2023-05-10T00:52:34.143Z,47.14
2023-05-10T00:55:01.082Z,47.29
2023-05-10T00:57:27.927Z,47.38
2023-05-10T00:59:54.614Z,46.79
2023-05-10T01:02:21.090Z,47.45
2023-05-10T01:04:48.376Z,47.39
2023-05-10T01:07:14.869Z,47.23
2023-05-10T01:09:41.433Z,46.84
2023-05-10T01:12:08.388Z,46.56
2023-05-10T01:14:37.052Z,46.79
2023-05-10T01:17:03.773Z,46.81
2023-05-10T01:19:31.529Z,46.72
2023-05-10T01:22:22.769Z,47.03
2023-05-10T01:25:15.128Z,46.80
2023-05-10T01:27:47.536Z,46.82
2023-05-10T01:30:38.665Z,47.02
2023-05-10T01:33:10.751Z,47.24
2023-05-10T01:35:46.353Z,47.37
2023-05-10T01:38:38.296Z,47.23
2023-05-10T01:41:14.277Z,47.26
2023-05-10T01:43:55.646Z,47.46
2023-05-10T01:46:29.740Z,47.61
2023-05-10T01:48:59.421Z,48.00
2023-05-10T01:51:28.503Z,48.08
2023-05-10T01:54:01.696Z,47.75
2023-05-10T01:56:29.548Z,47.88
2023-05-10T01:58:56.644Z,48.57
2023-05-10T02:01:23.494Z,48.50
2023-05-10T02:03:51.105Z,48.50
2023-05-10T02:06:19.568Z,48.08
2023-05-10T02:08:47.708Z,48.79
2023-05-10T02:11:14.998Z,48.43
2023-05-10T02:13:42.192Z,48.59
2023-05-10T02:16:08.939Z,48.89
2023-05-10T02:18:36.899Z,48.89
2023-05-10T02:21:03.855Z,48.74
2023-05-10T02:23:30.829Z,49.08
2023-05-10T02:25:58.159Z,49.63
2023-05-10T02:28:26.447Z,49.64
2023-05-10T02:30:53.981Z,49.57
2023-05-10T02:33:21.362Z,49.19
2023-05-10T02:35:48.160Z,49.88
2023-05-10T02:38:15.570Z,49.48
2023-05-10T02:40:43.367Z,49.43
2023-05-10T02:43:13.576Z,49.42
2023-05-10T02:45:40.737Z,49.89
2023-05-10T02:48:07.647Z,49.52
2023-05-10T02:50:34.844Z,49.64
2023-05-10T02:53:03.266Z,49.72
2023-05-10T02:55:34.287Z,50.06
2023-05-10T02:58:02.475Z,50.27
2023-05-10T03:00:29.487Z,50.03
2023-05-10T03:02:56.101Z,50.14
2023-05-10T03:05:22.782Z,50.39
2023-05-10T03:07:49.629Z,50.13
2023-05-10T03:10:16.453Z,50.23
2023-05-10T03:13:02.881Z,50.91
2023-05-10T03:15:47.323Z,50.49
2023-05-10T03:18:15.068Z,50.62
2023-05-10T03:20:49.560Z,50.68
2023-05-10T03:23:19.130Z,50.78
2023-05-10T03:25:48.147Z,51.11
2023-05-10T03:28:15.764Z,50.60
2023-05-10T03:30:43.605Z,50.89
2023-05-10T03:33:10.156Z,50.95
2023-05-10T03:35:36.746Z,50.80
2023-05-10T03:38:03.492Z,50.79
2023-05-10T03:40:32.413Z,50.04
2023-05-10T03:42:59.845Z,50.50
2023-05-10T03:45:26.429Z,50.03
2023-05-10T03:47:52.934Z,50.29
2023-05-10T03:50:20.196Z,50.14
2023-05-10T03:52:47.556Z,50.24
2023-05-10T03:55:14.058Z,49.89
2023-05-10T03:57:40.662Z,50.10
2023-05-10T04:00:07.701Z,50.06
2023-05-10T04:02:34.431Z,49.79
2023-05-10T04:05:00.999Z,49.75
2023-05-10T04:07:27.578Z,49.96
2023-05-10T04:09:54.181Z,50.05
2023-05-10T04:12:20.924Z,50.36
2023-05-10T04:14:47.470Z,49.75
2023-05-10T04:17:14.036Z,49.47
2023-05-10T04:19:40.607Z,49.49
2023-05-10T04:22:07.211Z,49.43
2023-05-10T04:24:33.656Z,49.33
2023-05-10T04:27:00.167Z,48.67
2023-05-10T04:29:27.627Z,49.08
2023-05-10T04:31:54.458Z,48.72
2023-05-10T04:34:21.856Z,48.55
2023-05-10T04:36:48.326Z,48.07
2023-05-10T04:39:14.836Z,48.24
2023-05-10T04:41:41.342Z,48.41
2023-05-10T04:44:07.824Z,48.48
2023-05-10T04:46:34.316Z,47.91
2023-05-10T04:49:00.769Z,48.04
2023-05-10T04:51:27.280Z,47.75
2023-05-10T04:54:05.391Z,47.91
2023-05-10T04:56:33.233Z,47.34
2023-05-10T04:58:59.788Z,47.67
2023-05-10T05:01:26.318Z,47.37
2023-05-10T05:03:54.189Z,47.41
2023-05-10T05:06:22.003Z,46.89
2023-05-10T05:08:50.349Z,46.76
2023-05-10T05:11:17.406Z,46.97
2023-05-10T05:13:44.255Z,46.76
2023-05-10T05:16:11.843Z,46.58
2023-05-10T05:18:38.429Z,46.25
2023-05-10T05:21:14.686Z,46.49
2023-05-10T05:23:41.332Z,45.80
2023-05-10T05:26:07.848Z,46.23
2023-05-10T05:28:38.032Z,45.91
2023-05-10T05:31:13.447Z,45.49
2023-05-10T05:33:40.007Z,45.24
2023-05-10T05:36:06.929Z,45.30
2023-05-10T05:38:33.600Z,45.79
2023-05-10T05:41:00.083Z,44.43
2023-05-10T05:43:26.652Z,43.74
2023-05-10T05:45:54.792Z,43.53
2023-05-10T05:48:21.663Z,42.39
2023-05-10T05:50:48.273Z,39.95
2023-05-10T05:53:14.837Z,37.69
2023-05-10T05:55:41.423Z,36.09
2023-05-10T05:58:08.023Z,35.58
2023-05-10T06:00:34.676Z,34.55
2023-05-10T06:03:01.359Z,34.55
2023-05-10T06:05:27.919Z,33.16
2023-05-10T06:07:54.461Z,31.88
2023-05-10T06:10:20.904Z,32.16
2023-05-10T06:12:47.490Z,31.16
2023-05-10T06:15:14.200Z,30.67
2023-05-10T06:17:41.340Z,30.08
2023-05-10T06:20:08.602Z,29.32
2023-05-10T06:22:35.117Z,28.87
2023-05-10T06:25:02.092Z,29.14
2023-05-10T06:27:28.762Z,30.53
2023-05-10T06:30:02.125Z,29.57
2023-05-10T06:32:36.177Z,28.02
2023-05-10T06:35:03.175Z,27.87
2023-05-10T06:37:29.654Z,27.24
2023-05-10T06:39:56.299Z,28.92
2023-05-10T06:42:22.852Z,28.74
2023-05-10T06:44:49.306Z,27.80
2023-05-10T06:47:15.811Z,27.30
2023-05-10T06:49:42.247Z,26.60
2023-05-10T06:52:08.736Z,26.37
2023-05-10T06:54:35.255Z,24.72
2023-05-10T06:57:03.586Z,25.61
2023-05-10T06:59:30.601Z,24.18
2023-05-10T07:01:57.121Z,25.85
2023-05-10T07:04:23.616Z,25.10
2023-05-10T07:06:50.710Z,25.53
2023-05-10T07:09:17.214Z,25.85
2023-05-10T07:11:43.752Z,24.16
2023-05-10T07:14:10.525Z,26.05
2023-05-10T07:16:37.255Z,25.80
2023-05-10T07:19:03.766Z,27.46
2023-05-10T07:21:30.297Z,26.20
2023-05-10T07:23:56.979Z,24.55
2023-05-10T07:26:23.501Z,24.55
2023-05-10T07:28:49.943Z,23.58
2023-05-10T07:31:16.527Z,24.17
2023-05-10T07:33:43.130Z,22.58
2023-05-10T07:36:09.621Z,26.02
2023-05-10T07:38:37.555Z,27.19
2023-05-10T07:41:05.916Z,26.74
2023-05-10T07:43:32.521Z,25.61
2023-05-10T07:46:00.685Z,26.02
2023-05-10T07:48:27.328Z,25.35
2023-05-10T07:50:53.832Z,24.30
2023-05-10T07:53:20.475Z,25.08
2023-05-10T07:55:51.574Z,25.70
2023-05-10T07:58:18.295Z,25.35
2023-05-10T08:00:44.823Z,25.28
2023-05-10T08:03:11.636Z,24.87
2023-05-10T08:05:38.226Z,25.59
2023-05-10T08:08:04.850Z,25.29
2023-05-10T08:10:31.352Z,26.78
2023-05-10T08:12:59.424Z,27.07
2023-05-10T08:15:26.502Z,27.04
2023-05-10T08:17:53.354Z,26.75
2023-05-10T08:20:20.040Z,26.59
2023-05-10T08:22:47.007Z,26.36
2023-05-10T08:25:13.709Z,25.74
2023-05-10T08:27:40.505Z,26.32
2023-05-10T08:30:07.725Z,25.21
2023-05-10T08:32:35.905Z,26.52
2023-05-10T08:35:02.457Z,25.97
2023-05-10T08:37:31.029Z,26.05
2023-05-10T08:39:57.558Z,26.39
2023-05-10T08:42:27.090Z,26.88
2023-05-10T08:44:54.925Z,25.55
2023-05-10T08:47:21.822Z,25.84
2023-05-10T08:49:51.924Z,26.19
2023-05-10T08:52:19.489Z,26.18
2023-05-10T08:54:45.982Z,26.06
2023-05-10T08:57:12.586Z,26.64
2023-05-10T08:59:40.620Z,26.87
2023-05-10T09:02:07.357Z,25.99
2023-05-10T09:04:33.901Z,27.09
2023-05-10T09:07:00.606Z,27.81
2023-05-10T09:09:28.258Z,27.84
2023-05-10T09:11:55.228Z,27.26
2023-05-10T09:14:21.830Z,26.74
2023-05-10T09:16:48.476Z,27.29
2023-05-10T09:19:15.908Z,27.44
2023-05-10T09:21:42.432Z,27.15
2023-05-10T09:24:09.545Z,26.93
2023-05-10T09:26:37.232Z,27.23
2023-05-10T09:29:04.019Z,27.36
2023-05-10T09:31:55.618Z,27.45
2023-05-10T09:34:33.616Z,27.23
2023-05-10T09:37:02.382Z,27.79
2023-05-10T09:39:33.297Z,27.27
2023-05-10T09:42:07.340Z,27.62
2023-05-10T09:44:34.602Z,27.82
2023-05-10T09:47:02.219Z,28.01
2023-05-10T09:49:28.961Z,27.30
2023-05-10T09:52:02.382Z,28.02
2023-05-10T09:54:28.900Z,28.74
2023-05-10T09:56:55.582Z,28.79
2023-05-10T09:59:22.137Z,28.45
2023-05-10T10:01:54.742Z,28.18
2023-05-10T10:04:22.405Z,28.37
2023-05-10T10:06:59.613Z,28.94
2023-05-10T10:09:26.505Z,28.54
2023-05-10T10:11:53.119Z,28.55
2023-05-10T10:14:19.933Z,29.47
2023-05-10T10:16:55.678Z,28.91
2023-05-10T10:19:34.301Z,28.91
2023-05-10T10:22:01.456Z,28.58
2023-05-10T10:24:27.924Z,28.27
2023-05-10T10:26:56.592Z,28.08
2023-05-10T10:29:42.288Z,28.00
2023-05-10T10:32:21.825Z,28.21
2023-05-10T10:34:48.748Z,28.24
2023-05-10T10:37:15.295Z,28.29
2023-05-10T10:39:41.998Z,28.08
2023-05-10T10:42:08.541Z,28.61
2023-05-10T10:44:41.461Z,28.64
2023-05-10T10:47:10.267Z,28.86
2023-05-10T10:49:42.904Z,29.39
2023-05-10T10:52:35.216Z,28.71
2023-05-10T10:55:04.869Z,28.23
2023-05-10T10:57:49.474Z,29.68
2023-05-10T11:00:30.011Z,27.38
2023-05-10T11:03:19.706Z,28.57
2023-05-10T11:05:50.049Z,27.92
2023-05-10T11:08:22.887Z,28.29
2023-05-10T11:10:54.767Z,28.76
2023-05-10T11:13:41.961Z,28.01
2023-05-10T11:16:21.388Z,28.40
2023-05-10T11:19:04.262Z,28.14
2023-05-10T11:21:31.946Z,28.03
2023-05-10T11:24:00.152Z,28.15
2023-05-10T11:26:31.815Z,28.60
2023-05-10T11:29:00.089Z,27.93
2023-05-10T11:31:27.999Z,27.39
2023-05-10T11:33:56.411Z,27.72
2023-05-10T11:36:26.878Z,28.23
2023-05-10T11:38:53.526Z,28.72
2023-05-10T11:41:22.755Z,28.62
2023-05-10T11:43:51.623Z,27.58
2023-05-10T11:46:21.395Z,28.72
2023-05-10T11:48:49.499Z,28.39
2023-05-10T11:51:16.194Z,28.59
2023-05-10T11:53:42.647Z,28.14
2023-05-10T11:56:10.359Z,28.17
2023-05-10T11:58:37.947Z,28.24
2023-05-10T12:01:06.029Z,28.21
2023-05-10T12:03:33.357Z,28.61
2023-05-10T12:06:00.748Z,28.81
2023-05-10T12:08:28.980Z,28.58
2023-05-10T12:11:06.011Z,28.50
2023-05-10T12:13:32.620Z,28.04
2023-05-10T12:15:59.665Z,27.91
2023-05-10T12:18:26.515Z,28.44
2023-05-10T12:20:54.717Z,28.09
2023-05-10T12:23:21.853Z,28.15
2023-05-10T12:25:48.330Z,28.21
2023-05-10T12:28:14.789Z,27.79
2023-05-10T12:30:41.321Z,27.33
2023-05-10T12:33:14.416Z,26.86
2023-05-10T12:35:51.051Z,27.19
2023-05-10T12:38:38.825Z,27.84
2023-05-10T12:41:10.137Z,27.87
2023-05-10T12:43:37.008Z,28.03
2023-05-10T12:46:11.785Z,28.24
2023-05-10T12:48:39.055Z,28.07
2023-05-10T12:51:06.024Z,27.74
2023-05-10T12:53:32.612Z,27.85
2023-05-10T12:55:59.083Z,27.95
2023-05-10T12:58:35.047Z,27.89
2023-05-10T13:01:03.022Z,27.70
2023-05-10T13:03:29.648Z,27.50
2023-05-10T13:05:56.221Z,27.52
2023-05-10T13:08:22.718Z,27.65
2023-05-10T13:10:49.662Z,27.20
2023-05-10T13:13:16.826Z,27.87
2023-05-10T13:15:43.324Z,27.57
2023-05-10T13:18:09.855Z,26.90
2023-05-10T13:20:36.677Z,26.81
2023-05-10T13:23:03.681Z,27.07
2023-05-10T13:25:30.950Z,28.29
2023-05-10T13:27:57.587Z,26.84
2023-05-10T13:30:24.957Z,27.44
2023-05-10T13:32:51.585Z,27.73
2023-05-10T13:35:18.159Z,27.75
2023-05-10T13:37:44.936Z,27.21
2023-05-10T13:40:11.660Z,27.56
2023-05-10T13:42:38.503Z,27.98
2023-05-10T13:45:05.695Z,27.71
2023-05-10T13:47:32.244Z,26.85
2023-05-10T13:49:59.315Z,26.62
2023-05-10T13:52:26.156Z,26.33
2023-05-10T13:54:53.244Z,26.48
2023-05-10T13:57:19.827Z,26.85
2023-05-10T13:59:46.478Z,26.89
2023-05-10T14:02:14.211Z,26.82
2023-05-10T14:04:40.872Z,27.05
2023-05-10T14:07:07.577Z,27.61
2023-05-10T14:09:34.258Z,26.92
2023-05-10T14:12:00.837Z,27.48
2023-05-10T14:14:27.571Z,26.61
2023-05-10T14:16:54.219Z,26.71
2023-05-10T14:19:20.842Z,26.89
2023-05-10T14:21:47.490Z,26.98
2023-05-10T14:24:14.046Z,27.10
2023-05-10T14:26:40.618Z,27.04
2023-05-10T14:29:07.700Z,27.64
2023-05-10T14:31:35.784Z,26.60
2023-05-10T14:34:02.347Z,27.07
2023-05-10T14:36:30.038Z,27.50
2023-05-10T14:38:56.616Z,27.59
2023-05-10T14:41:23.902Z,27.83
2023-05-10T14:43:50.393Z,27.72
2023-05-10T14:46:17.064Z,27.49
2023-05-10T14:48:43.650Z,28.06
2023-05-10T14:51:10.148Z,27.75
2023-05-10T14:53:36.792Z,27.69
2023-05-10T14:56:03.960Z,27.95
2023-05-10T14:58:33.990Z,27.81
2023-05-10T15:01:01.269Z,27.77
2023-05-10T15:03:28.609Z,27.60
2023-05-10T15:05:57.127Z,27.27
2023-05-10T15:08:24.762Z,27.62
2023-05-10T15:10:52.076Z,27.85
2023-05-10T15:13:18.973Z,27.73
2023-05-10T15:15:45.707Z,27.71
2023-05-10T15:18:12.490Z,27.52
2023-05-10T15:20:39.098Z,27.20
2023-05-10T15:23:05.647Z,27.55
2023-05-10T15:25:32.207Z,27.43
2023-05-10T15:27:58.846Z,27.67
2023-05-10T15:30:25.396Z,27.98
2023-05-10T15:32:52.002Z,27.63
2023-05-10T15:35:18.984Z,27.78
2023-05-10T15:37:47.339Z,28.03
2023-05-10T15:40:13.957Z,28.37
2023-05-10T15:42:40.518Z,28.59
2023-05-10T15:45:07.594Z,28.72
2023-05-10T15:47:34.194Z,28.89
2023-05-10T15:50:01.184Z,28.80
2023-05-10T15:52:28.172Z,28.62
2023-05-10T15:54:54.784Z,28.68
2023-05-10T15:57:21.390Z,28.03
2023-05-10T15:59:47.866Z,28.44
2023-05-10T16:02:14.625Z,27.97
2023-05-10T16:04:41.480Z,27.83
2023-05-10T16:07:07.955Z,27.63
2023-05-10T16:09:34.406Z,28.00
2023-05-10T16:12:02.044Z,28.13
2023-05-10T16:14:28.778Z,28.37
2023-05-10T16:16:55.354Z,27.61
2023-05-10T16:19:22.533Z,27.73
2023-05-10T16:21:49.545Z,27.40
2023-05-10T16:24:16.041Z,27.38
2023-05-10T16:26:42.602Z,27.50
2023-05-10T16:29:09.216Z,27.45
2023-05-10T16:31:35.820Z,27.11
2023-05-10T16:34:02.391Z,26.98
2023-05-10T16:36:29.622Z,26.85
2023-05-10T16:38:56.553Z,26.93
2023-05-10T16:41:23.071Z,26.79
2023-05-10T16:43:50.147Z,26.83
2023-05-10T16:46:16.771Z,26.87
2023-05-10T16:48:43.362Z,26.10
2023-05-10T16:51:09.922Z,26.77
2023-05-10T16:53:36.611Z,26.58
2023-05-10T16:56:03.570Z,26.87
2023-05-10T16:58:30.053Z,26.25
2023-05-10T17:00:56.593Z,26.42
2023-05-10T17:03:23.437Z,27.03
2023-05-10T17:05:50.100Z,26.74
2023-05-10T17:08:16.687Z,27.07
2023-05-10T17:10:43.144Z,27.58
2023-05-10T17:13:10.585Z,27.13
2023-05-10T17:15:38.204Z,27.28
2023-05-10T17:18:05.189Z,27.72
2023-05-10T17:20:31.719Z,27.72
2023-05-10T17:22:58.174Z,27.65
2023-05-10T17:25:24.887Z,27.66
2023-05-10T17:27:51.380Z,27.75
2023-05-10T17:30:22.587Z,28.38
2023-05-10T17:32:49.401Z,27.54
2023-05-10T17:35:16.435Z,27.79
2023-05-10T17:37:44.122Z,27.86
2023-05-10T17:40:11.466Z,28.20
2023-05-10T17:42:38.010Z,28.21
2023-05-10T17:45:04.844Z,28.65
2023-05-10T17:47:31.625Z,28.90
2023-05-10T17:49:58.149Z,29.20
2023-05-10T17:52:24.796Z,29.56
2023-05-10T17:54:51.505Z,29.91
2023-05-10T17:57:18.402Z,30.06
2023-05-10T17:59:44.906Z,30.13
2023-05-10T18:02:11.368Z,30.29
2023-05-10T18:04:40.245Z,30.71
2023-05-10T18:07:07.940Z,30.66
2023-05-10T18:09:34.534Z,30.86
2023-05-10T18:12:03.902Z,31.00
2023-05-10T18:14:39.741Z,31.10
2023-05-10T18:17:07.737Z,31.68
2023-05-10T18:19:34.518Z,31.05
2023-05-10T18:22:01.048Z,31.58
2023-05-10T18:24:38.474Z,31.32
2023-05-10T18:27:07.595Z,31.32
2023-05-10T18:29:35.195Z,31.54
2023-05-10T18:32:01.748Z,32.19
2023-05-10T18:34:28.759Z,31.54
2023-05-10T18:36:55.274Z,31.87
2023-05-10T18:39:21.810Z,32.07
2023-05-10T18:41:48.334Z,31.93
2023-05-10T18:44:14.874Z,32.52
2023-05-10T18:46:42.553Z,32.87
2023-05-10T18:49:09.239Z,32.35
2023-05-10T18:51:36.054Z,32.43
2023-05-10T18:54:02.560Z,32.55
2023-05-10T18:56:29.014Z,32.92
2023-05-10T18:58:56.120Z,32.84
2023-05-10T19:01:22.672Z,33.06
2023-05-10T19:03:49.194Z,32.73
2023-05-10T19:06:16.186Z,32.69
2023-05-10T19:08:42.730Z,32.85
2023-05-10T19:11:09.231Z,33.61
2023-05-10T19:13:35.816Z,33.23
2023-05-10T19:16:06.988Z,33.43
2023-05-10T19:18:34.092Z,33.05
2023-05-10T19:21:04.579Z,33.55
2023-05-10T19:23:34.666Z,33.71
2023-05-10T19:26:01.552Z,33.50
2023-05-10T19:28:28.347Z,33.77
2023-05-10T19:30:55.084Z,33.74
2023-05-10T19:33:21.554Z,33.63
2023-05-10T19:35:51.339Z,33.47
2023-05-10T19:38:21.405Z,33.57
2023-05-10T19:40:50.298Z,33.86
2023-05-10T19:43:17.364Z,33.76
2023-05-10T19:45:44.024Z,34.05
2023-05-10T19:48:11.077Z,34.10
2023-05-10T19:50:38.551Z,34.24
2023-05-10T19:53:05.084Z,34.03
2023-05-10T19:55:32.697Z,34.11
2023-05-10T19:58:02.371Z,34.25
2023-05-10T20:00:29.048Z,34.53
2023-05-10T20:02:56.070Z,34.63
2023-05-10T20:05:22.851Z,34.57
2023-05-10T20:07:49.589Z,34.69
2023-05-10T20:10:16.998Z,35.13
2023-05-10T20:12:51.659Z,35.37
2023-05-10T20:15:20.104Z,34.47
2023-05-10T20:17:47.660Z,34.96
2023-05-10T20:20:15.994Z,34.63
2023-05-10T20:22:46.106Z,34.87
2023-05-10T20:25:13.165Z,35.31
2023-05-10T20:27:39.714Z,35.50
2023-05-10T20:30:07.012Z,35.58
2023-05-10T20:32:34.597Z,35.58
2023-05-10T20:35:01.533Z,35.88
2023-05-10T20:37:28.225Z,35.82
2023-05-10T20:39:55.312Z,35.98
2023-05-10T20:42:21.978Z,36.02
2023-05-10T20:44:48.560Z,36.27
2023-05-10T20:47:15.446Z,36.65
2023-05-10T20:49:42.683Z,36.43
2023-05-10T20:52:09.257Z,36.91
2023-05-10T20:54:35.787Z,36.86
2023-05-10T20:57:02.256Z,37.45
2023-05-10T20:59:29.257Z,37.55
2023-05-10T21:01:56.972Z,37.80
2023-05-10T21:04:24.575Z,37.73
2023-05-10T21:06:51.621Z,38.16
2023-05-10T21:09:18.262Z,38.06
2023-05-10T21:11:44.930Z,37.78
2023-05-10T21:14:11.403Z,37.76
2023-05-10T21:16:38.117Z,38.10
2023-05-10T21:19:07.017Z,38.51
2023-05-10T21:21:33.806Z,38.29
2023-05-10T21:24:00.258Z,38.27
2023-05-10T21:26:26.809Z,38.40
2023-05-10T21:28:53.397Z,38.78
2023-05-10T21:31:20.264Z,38.84
2023-05-10T21:33:46.815Z,39.07
2023-05-10T21:36:13.797Z,39.03
2023-05-10T21:38:40.917Z,39.17
2023-05-10T21:41:08.034Z,38.92
2023-05-10T21:43:34.798Z,38.68
2023-05-10T21:46:01.704Z,39.41
2023-05-10T21:48:28.250Z,39.50
2023-05-10T21:50:54.777Z,38.94
2023-05-10T21:53:22.282Z,39.25
2023-05-10T21:55:48.896Z,39.31
2023-05-10T21:58:15.474Z,39.72
2023-05-10T22:00:41.969Z,39.28
2023-05-10T22:03:08.620Z,39.61
2023-05-10T22:05:35.339Z,39.48
2023-05-10T22:08:01.789Z,39.88
2023-05-10T22:10:28.380Z,39.76
2023-05-10T22:12:54.854Z,39.97
2023-05-10T22:15:21.424Z,39.94
2023-05-10T22:17:47.973Z,40.05
2023-05-10T22:20:14.570Z,39.99
2023-05-10T22:22:41.074Z,40.05
2023-05-10T22:25:07.977Z,39.99
2023-05-10T22:27:34.906Z,40.24
2023-05-10T22:30:01.633Z,40.50
2023-05-10T22:32:28.387Z,40.64
2023-05-10T22:34:55.018Z,40.27
2023-05-10T22:37:21.485Z,40.19
2023-05-10T22:39:48.668Z,40.46
2023-05-10T22:42:15.624Z,40.49
2023-05-10T22:44:42.811Z,40.41
2023-05-10T22:47:09.404Z,40.82
2023-05-10T22:49:36.121Z,40.62
2023-05-10T22:52:02.597Z,40.87
2023-05-10T22:54:29.051Z,40.97
2023-05-10T22:56:56.474Z,40.82
2023-05-10T22:59:23.207Z,41.12
2023-05-10T23:01:49.705Z,40.61
2023-05-10T23:04:16.210Z,40.68
2023-05-10T23:06:42.714Z,40.96
2023-05-10T23:09:09.794Z,41.08
2023-05-10T23:11:36.522Z,41.31
2023-05-10T23:14:03.148Z,41.31
2023-05-10T23:16:30.569Z,41.55
2023-05-10T23:18:58.792Z,41.14
2023-05-10T23:21:25.386Z,41.09
2023-05-10T23:23:52.457Z,41.25
2023-05-10T23:26:19.485Z,41.88
2023-05-10T23:28:45.961Z,41.64
2023-05-10T23:31:12.409Z,41.45
2023-05-10T23:33:38.935Z,41.31
2023-05-10T23:36:05.734Z,41.18
2023-05-10T23:38:32.242Z,41.31
2023-05-10T23:40:58.786Z,40.92
2023-05-10T23:43:25.441Z,40.85
2023-05-10T23:45:53.964Z,40.99
2023-05-10T23:48:20.602Z,40.85
2023-05-10T23:50:47.231Z,40.93
2023-05-10T23:53:14.224Z,40.82
2023-05-10T23:55:42.534Z,40.64
2023-05-10T23:58:10.102Z,40.60
